sensor_id;sensor_type;location;lat;lon;timestamp;temperature;humidity
40153;DHT22;26371;56.992;23.912;2024-01-06T00:01:33;-7.60;99.90
40153;DHT22;26371;56.992;23.912;2024-01-06T00:04:03;-7.50;99.90
40153;DHT22;26371;56.992;23.912;2024-01-06T00:06:32;-7.50;99.90
40153;DHT22;26371;56.992;23.912;2024-01-06T00:09:01;-7.60;99.90
40153;DHT22;26371;56.992;23.912;2024-01-06T00:11:30;-7.60;99.90
40153;DHT22;26371;56.992;23.912;2024-01-06T00:13:59;-7.50;99.90
40153;DHT22;26371;56.992;23.912;2024-01-06T00:16:27;-7.50;99.90
40153;DHT22;26371;56.992;23.912;2024-01-06T00:18:57;-7.50;99.90
40153;DHT22;26371;56.992;23.912;2024-01-06T00:21:28;-7.50;99.90
40153;DHT22;26371;56.992;23.912;2024-01-06T00:23:57;-7.50;99.90
40153;DHT22;26371;56.992;23.912;2024-01-06T00:26:26;-7.60;99.90
40153;DHT22;26371;56.992;23.912;2024-01-06T00:28:55;-7.60;99.90
40153;DHT22;26371;56.992;23.912;2024-01-06T00:31:24;-7.70;99.90
40153;DHT22;26371;56.992;23.912;2024-01-06T00:33:53;-7.80;99.90
40153;DHT22;26371;56.992;23.912;2024-01-06T00:36:22;-8.00;99.90
40153;DHT22;26371;56.992;23.912;2024-01-06T00:38:52;-8.00;99.90
40153;DHT22;26371;56.992;23.912;2024-01-06T00:41:20;-8.00;99.90
40153;DHT22;26371;56.992;23.912;2024-01-06T00:43:49;-8.00;99.90
40153;DHT22;26371;56.992;23.912;2024-01-06T00:46:18;-8.20;99.90
40153;DHT22;26371;56.992;23.912;2024-01-06T00:48:46;-8.40;99.90
40153;DHT22;26371;56.992;23.912;2024-01-06T00:51:15;-8.70;99.90
40153;DHT22;26371;56.992;23.912;2024-01-06T00:53:44;-8.70;99.90
40153;DHT22;26371;56.992;23.912;2024-01-06T00:56:14;-8.70;99.90
40153;DHT22;26371;56.992;23.912;2024-01-06T00:58:43;-8.70;99.90
40153;DHT22;26371;56.992;23.912;2024-01-06T01:01:12;-8.90;99.90
40153;DHT22;26371;56.992;23.912;2024-01-06T01:03:41;-9.10;99.90
40153;DHT22;26371;56.992;23.912;2024-01-06T01:06:10;-9.30;99.90
40153;DHT22;26371;56.992;23.912;2024-01-06T01:08:39;-9.40;99.90
40153;DHT22;26371;56.992;23.912;2024-01-06T01:11:07;-9.40;99.90
40153;DHT22;26371;56.992;23.912;2024-01-06T01:13:37;-9.30;99.90
40153;DHT22;26371;56.992;23.912;2024-01-06T01:16:06;-9.30;99.90
40153;DHT22;26371;56.992;23.912;2024-01-06T01:18:35;-9.30;99.90
40153;DHT22;26371;56.992;23.912;2024-01-06T01:21:04;-9.50;99.90
40153;DHT22;26371;56.992;23.912;2024-01-06T01:23:33;-9.40;99.90
40153;DHT22;26371;56.992;23.912;2024-01-06T01:26:02;-9.30;99.90
40153;DHT22;26371;56.992;23.912;2024-01-06T01:28:31;-9.40;99.90
40153;DHT22;26371;56.992;23.912;2024-01-06T01:31:01;-9.30;99.90
40153;DHT22;26371;56.992;23.912;2024-01-06T01:33:30;-9.40;99.90
40153;DHT22;26371;56.992;23.912;2024-01-06T01:35:59;-9.30;99.90
40153;DHT22;26371;56.992;23.912;2024-01-06T01:38:29;-9.40;99.90
40153;DHT22;26371;56.992;23.912;2024-01-06T01:40:58;-9.40;99.90
40153;DHT22;26371;56.992;23.912;2024-01-06T01:43:27;-9.40;99.90
40153;DHT22;26371;56.992;23.912;2024-01-06T01:45:56;-9.70;99.90
40153;DHT22;26371;56.992;23.912;2024-01-06T01:48:27;-9.90;99.90
40153;DHT22;26371;56.992;23.912;2024-01-06T01:50:56;-10.00;99.90
40153;DHT22;26371;56.992;23.912;2024-01-06T01:53:26;-10.20;99.90
40153;DHT22;26371;56.992;23.912;2024-01-06T01:55:56;-10.10;99.90
40153;DHT22;26371;56.992;23.912;2024-01-06T01:58:25;-10.00;99.90
40153;DHT22;26371;56.992;23.912;2024-01-06T02:00:54;-10.10;99.90
40153;DHT22;26371;56.992;23.912;2024-01-06T02:03:22;-10.00;99.90
40153;DHT22;26371;56.992;23.912;2024-01-06T02:05:54;-9.80;99.90
40153;DHT22;26371;56.992;23.912;2024-01-06T02:08:23;-9.70;99.90
40153;DHT22;26371;56.992;23.912;2024-01-06T02:10:53;-9.80;99.90
40153;DHT22;26371;56.992;23.912;2024-01-06T02:13:22;-9.70;99.90
40153;DHT22;26371;56.992;23.912;2024-01-06T02:15:52;-9.50;99.90
40153;DHT22;26371;56.992;23.912;2024-01-06T02:18:20;-9.30;99.90
40153;DHT22;26371;56.992;23.912;2024-01-06T02:20:50;-9.20;99.90
40153;DHT22;26371;56.992;23.912;2024-01-06T02:23:22;-9.10;99.90
40153;DHT22;26371;56.992;23.912;2024-01-06T02:25:51;-9.10;99.90
40153;DHT22;26371;56.992;23.912;2024-01-06T02:28:20;-9.20;99.90
40153;DHT22;26371;56.992;23.912;2024-01-06T02:30:49;-9.30;99.90
40153;DHT22;26371;56.992;23.912;2024-01-06T02:33:18;-9.50;99.90
40153;DHT22;26371;56.992;23.912;2024-01-06T02:35:47;-9.40;99.90
40153;DHT22;26371;56.992;23.912;2024-01-06T02:38:16;-9.40;99.90
40153;DHT22;26371;56.992;23.912;2024-01-06T02:40:46;-9.40;99.90
40153;DHT22;26371;56.992;23.912;2024-01-06T02:43:14;-9.20;99.90
40153;DHT22;26371;56.992;23.912;2024-01-06T02:45:43;-9.20;99.90
40153;DHT22;26371;56.992;23.912;2024-01-06T02:48:14;-9.30;99.90
40153;DHT22;26371;56.992;23.912;2024-01-06T02:50:43;-9.40;99.90
40153;DHT22;26371;56.992;23.912;2024-01-06T02:53:12;-9.40;99.90
40153;DHT22;26371;56.992;23.912;2024-01-06T02:55:40;-9.40;99.90
40153;DHT22;26371;56.992;23.912;2024-01-06T02:58:11;-9.40;99.90
40153;DHT22;26371;56.992;23.912;2024-01-06T03:00:39;-9.40;99.90
40153;DHT22;26371;56.992;23.912;2024-01-06T03:03:08;-9.40;99.90
40153;DHT22;26371;56.992;23.912;2024-01-06T03:05:39;-9.50;99.90
40153;DHT22;26371;56.992;23.912;2024-01-06T03:08:08;-9.50;99.90
40153;DHT22;26371;56.992;23.912;2024-01-06T03:10:37;-9.50;99.90
40153;DHT22;26371;56.992;23.912;2024-01-06T03:13:06;-9.40;99.90
40153;DHT22;26371;56.992;23.912;2024-01-06T03:15:36;-9.50;99.90
40153;DHT22;26371;56.992;23.912;2024-01-06T03:18:04;-9.50;99.90
40153;DHT22;26371;56.992;23.912;2024-01-06T03:20:33;-9.50;99.90
40153;DHT22;26371;56.992;23.912;2024-01-06T03:23:02;-9.40;99.90
40153;DHT22;26371;56.992;23.912;2024-01-06T03:25:31;-9.30;99.90
40153;DHT22;26371;56.992;23.912;2024-01-06T03:28:00;-9.30;99.90
40153;DHT22;26371;56.992;23.912;2024-01-06T03:30:29;-9.40;99.90
40153;DHT22;26371;56.992;23.912;2024-01-06T03:32:59;-9.50;99.90
40153;DHT22;26371;56.992;23.912;2024-01-06T03:35:28;-9.60;99.90
40153;DHT22;26371;56.992;23.912;2024-01-06T03:37:57;-9.50;99.90
40153;DHT22;26371;56.992;23.912;2024-01-06T03:40:25;-9.40;99.90
40153;DHT22;26371;56.992;23.912;2024-01-06T03:42:54;-9.20;99.90
40153;DHT22;26371;56.992;23.912;2024-01-06T03:45:23;-9.00;99.90
40153;DHT22;26371;56.992;23.912;2024-01-06T03:47:51;-8.90;99.90
40153;DHT22;26371;56.992;23.912;2024-01-06T03:50:22;-9.00;99.90
40153;DHT22;26371;56.992;23.912;2024-01-06T03:52:50;-9.00;99.90
40153;DHT22;26371;56.992;23.912;2024-01-06T03:55:19;-9.10;99.90
40153;DHT22;26371;56.992;23.912;2024-01-06T03:57:47;-9.20;99.90
40153;DHT22;26371;56.992;23.912;2024-01-06T04:00:16;-9.20;99.90
40153;DHT22;26371;56.992;23.912;2024-01-06T04:02:45;-9.20;99.90
40153;DHT22;26371;56.992;23.912;2024-01-06T04:05:14;-9.30;99.90
40153;DHT22;26371;56.992;23.912;2024-01-06T04:07:44;-9.40;99.90
40153;DHT22;26371;56.992;23.912;2024-01-06T04:10:13;-9.30;99.90
40153;DHT22;26371;56.992;23.912;2024-01-06T04:12:41;-9.20;99.90
40153;DHT22;26371;56.992;23.912;2024-01-06T04:15:10;-9.10;99.90
40153;DHT22;26371;56.992;23.912;2024-01-06T04:17:39;-9.10;99.90
40153;DHT22;26371;56.992;23.912;2024-01-06T04:20:09;-9.00;99.90
40153;DHT22;26371;56.992;23.912;2024-01-06T04:22:40;-9.00;99.90
40153;DHT22;26371;56.992;23.912;2024-01-06T04:25:10;-9.10;99.90
40153;DHT22;26371;56.992;23.912;2024-01-06T04:27:38;-9.00;99.90
40153;DHT22;26371;56.992;23.912;2024-01-06T04:30:08;-9.00;99.90
40153;DHT22;26371;56.992;23.912;2024-01-06T04:32:37;-9.10;99.90
40153;DHT22;26371;56.992;23.912;2024-01-06T04:35:06;-9.20;99.90
40153;DHT22;26371;56.992;23.912;2024-01-06T04:37:35;-9.10;99.90
40153;DHT22;26371;56.992;23.912;2024-01-06T04:40:05;-9.10;99.90
40153;DHT22;26371;56.992;23.912;2024-01-06T04:42:36;-9.20;99.90
40153;DHT22;26371;56.992;23.912;2024-01-06T04:45:06;-9.30;99.90
40153;DHT22;26371;56.992;23.912;2024-01-06T04:47:35;-9.50;99.90
40153;DHT22;26371;56.992;23.912;2024-01-06T04:50:08;-9.60;99.90
40153;DHT22;26371;56.992;23.912;2024-01-06T04:52:37;-9.70;99.90
40153;DHT22;26371;56.992;23.912;2024-01-06T04:55:06;-9.80;99.90
40153;DHT22;26371;56.992;23.912;2024-01-06T04:57:36;-9.70;99.90
40153;DHT22;26371;56.992;23.912;2024-01-06T05:00:06;-9.70;99.90
40153;DHT22;26371;56.992;23.912;2024-01-06T05:02:35;-9.70;99.90
40153;DHT22;26371;56.992;23.912;2024-01-06T05:05:04;-9.70;99.90
40153;DHT22;26371;56.992;23.912;2024-01-06T05:07:33;-9.70;99.90
40153;DHT22;26371;56.992;23.912;2024-01-06T05:10:06;-9.70;99.90
40153;DHT22;26371;56.992;23.912;2024-01-06T05:12:36;-9.80;99.90
40153;DHT22;26371;56.992;23.912;2024-01-06T05:15:05;-9.80;99.90
40153;DHT22;26371;56.992;23.912;2024-01-06T05:17:34;-9.90;99.90
40153;DHT22;26371;56.992;23.912;2024-01-06T05:20:03;-9.90;99.90
40153;DHT22;26371;56.992;23.912;2024-01-06T05:22:32;-9.80;99.90
40153;DHT22;26371;56.992;23.912;2024-01-06T05:25:07;-9.70;99.90
40153;DHT22;26371;56.992;23.912;2024-01-06T05:27:39;-9.70;99.90
40153;DHT22;26371;56.992;23.912;2024-01-06T05:30:10;-9.70;99.90
40153;DHT22;26371;56.992;23.912;2024-01-06T05:32:39;-9.70;99.90
40153;DHT22;26371;56.992;23.912;2024-01-06T05:35:07;-9.50;99.90
40153;DHT22;26371;56.992;23.912;2024-01-06T05:37:36;-9.60;99.90
40153;DHT22;26371;56.992;23.912;2024-01-06T05:40:07;-9.60;99.90
40153;DHT22;26371;56.992;23.912;2024-01-06T05:42:36;-9.50;99.90
40153;DHT22;26371;56.992;23.912;2024-01-06T05:45:09;-9.50;99.90
40153;DHT22;26371;56.992;23.912;2024-01-06T05:47:39;-9.50;99.90
40153;DHT22;26371;56.992;23.912;2024-01-06T05:50:08;-9.50;99.90
40153;DHT22;26371;56.992;23.912;2024-01-06T05:52:37;-9.40;99.90
40153;DHT22;26371;56.992;23.912;2024-01-06T05:55:06;-9.50;99.90
40153;DHT22;26371;56.992;23.912;2024-01-06T05:57:36;-9.40;99.90
40153;DHT22;26371;56.992;23.912;2024-01-06T06:00:10;-9.30;99.90
40153;DHT22;26371;56.992;23.912;2024-01-06T06:02:39;-9.20;99.90
40153;DHT22;26371;56.992;23.912;2024-01-06T06:05:08;-9.30;99.90
40153;DHT22;26371;56.992;23.912;2024-01-06T06:07:37;-9.50;99.90
40153;DHT22;26371;56.992;23.912;2024-01-06T06:10:08;-9.40;99.90
40153;DHT22;26371;56.992;23.912;2024-01-06T06:12:38;-9.30;99.90
40153;DHT22;26371;56.992;23.912;2024-01-06T06:15:08;-9.20;99.90
40153;DHT22;26371;56.992;23.912;2024-01-06T06:17:38;-9.20;99.90
40153;DHT22;26371;56.992;23.912;2024-01-06T06:20:10;-9.20;99.90
40153;DHT22;26371;56.992;23.912;2024-01-06T06:22:39;-9.20;99.90
40153;DHT22;26371;56.992;23.912;2024-01-06T06:25:08;-9.20;99.90
40153;DHT22;26371;56.992;23.912;2024-01-06T06:27:36;-9.10;99.90
40153;DHT22;26371;56.992;23.912;2024-01-06T06:30:09;-9.10;99.90
40153;DHT22;26371;56.992;23.912;2024-01-06T06:32:38;-9.20;99.90
40153;DHT22;26371;56.992;23.912;2024-01-06T06:35:08;-9.40;99.90
40153;DHT22;26371;56.992;23.912;2024-01-06T06:37:36;-9.60;99.90
40153;DHT22;26371;56.992;23.912;2024-01-06T06:40:06;-9.70;99.90
40153;DHT22;26371;56.992;23.912;2024-01-06T06:42:35;-9.80;99.90
40153;DHT22;26371;56.992;23.912;2024-01-06T06:45:05;-9.90;99.90
40153;DHT22;26371;56.992;23.912;2024-01-06T06:47:35;-9.90;99.90
40153;DHT22;26371;56.992;23.912;2024-01-06T06:50:04;-10.00;99.90
40153;DHT22;26371;56.992;23.912;2024-01-06T06:52:33;-10.10;99.90
40153;DHT22;26371;56.992;23.912;2024-01-06T06:55:02;-10.10;99.90
40153;DHT22;26371;56.992;23.912;2024-01-06T06:57:31;-10.10;99.90
40153;DHT22;26371;56.992;23.912;2024-01-06T07:00:00;-10.10;99.90
40153;DHT22;26371;56.992;23.912;2024-01-06T07:02:29;-10.10;99.90
40153;DHT22;26371;56.992;23.912;2024-01-06T07:04:59;-10.00;99.90
40153;DHT22;26371;56.992;23.912;2024-01-06T07:07:28;-10.00;99.90
40153;DHT22;26371;56.992;23.912;2024-01-06T07:09:56;-10.00;99.90
40153;DHT22;26371;56.992;23.912;2024-01-06T07:12:25;-9.90;99.90
40153;DHT22;26371;56.992;23.912;2024-01-06T07:14:54;-9.90;99.90
40153;DHT22;26371;56.992;23.912;2024-01-06T07:17:23;-9.80;99.90
40153;DHT22;26371;56.992;23.912;2024-01-06T07:19:52;-9.70;99.90
40153;DHT22;26371;56.992;23.912;2024-01-06T07:22:22;-9.60;99.90
40153;DHT22;26371;56.992;23.912;2024-01-06T07:24:51;-9.50;99.90
40153;DHT22;26371;56.992;23.912;2024-01-06T07:27:20;-9.50;99.90
40153;DHT22;26371;56.992;23.912;2024-01-06T07:29:49;-9.50;99.90
40153;DHT22;26371;56.992;23.912;2024-01-06T07:32:17;-9.60;99.90
40153;DHT22;26371;56.992;23.912;2024-01-06T07:34:46;-9.60;99.90
40153;DHT22;26371;56.992;23.912;2024-01-06T07:37:15;-9.50;99.90
40153;DHT22;26371;56.992;23.912;2024-01-06T07:39:45;-9.40;99.90
40153;DHT22;26371;56.992;23.912;2024-01-06T07:42:13;-9.60;99.90
40153;DHT22;26371;56.992;23.912;2024-01-06T07:44:42;-9.70;99.90
40153;DHT22;26371;56.992;23.912;2024-01-06T07:47:11;-9.80;99.90
40153;DHT22;26371;56.992;23.912;2024-01-06T07:49:41;-9.90;99.90
40153;DHT22;26371;56.992;23.912;2024-01-06T07:52:10;-9.90;99.90
40153;DHT22;26371;56.992;23.912;2024-01-06T07:54:40;-9.90;99.90
40153;DHT22;26371;56.992;23.912;2024-01-06T07:57:10;-9.90;99.90
40153;DHT22;26371;56.992;23.912;2024-01-06T07:59:40;-9.80;99.90
40153;DHT22;26371;56.992;23.912;2024-01-06T08:02:09;-9.90;99.90
40153;DHT22;26371;56.992;23.912;2024-01-06T08:04:38;-9.90;99.90
40153;DHT22;26371;56.992;23.912;2024-01-06T08:07:07;-9.90;99.90
40153;DHT22;26371;56.992;23.912;2024-01-06T08:09:36;-9.90;99.90
40153;DHT22;26371;56.992;23.912;2024-01-06T08:12:09;-9.90;99.90
40153;DHT22;26371;56.992;23.912;2024-01-06T08:14:38;-9.90;99.90
40153;DHT22;26371;56.992;23.912;2024-01-06T08:17:07;-9.90;99.90
40153;DHT22;26371;56.992;23.912;2024-01-06T08:19:35;-10.00;99.90
40153;DHT22;26371;56.992;23.912;2024-01-06T08:22:04;-10.00;99.90
40153;DHT22;26371;56.992;23.912;2024-01-06T08:24:33;-9.90;99.90
40153;DHT22;26371;56.992;23.912;2024-01-06T08:27:03;-9.80;99.90
40153;DHT22;26371;56.992;23.912;2024-01-06T08:29:33;-9.70;99.90
40153;DHT22;26371;56.992;23.912;2024-01-06T08:32:06;-9.60;99.90
40153;DHT22;26371;56.992;23.912;2024-01-06T08:34:35;-9.60;99.90
40153;DHT22;26371;56.992;23.912;2024-01-06T08:37:04;-9.70;99.90
40153;DHT22;26371;56.992;23.912;2024-01-06T08:39:33;-9.70;99.90
40153;DHT22;26371;56.992;23.912;2024-01-06T08:42:02;-9.70;99.90
40153;DHT22;26371;56.992;23.912;2024-01-06T08:44:33;-9.70;99.90
40153;DHT22;26371;56.992;23.912;2024-01-06T08:47:06;-9.60;99.90
40153;DHT22;26371;56.992;23.912;2024-01-06T08:49:35;-9.50;99.90
40153;DHT22;26371;56.992;23.912;2024-01-06T08:52:04;-9.40;99.90
40153;DHT22;26371;56.992;23.912;2024-01-06T08:54:33;-9.30;99.90
40153;DHT22;26371;56.992;23.912;2024-01-06T08:57:03;-9.30;99.90
40153;DHT22;26371;56.992;23.912;2024-01-06T08:59:33;-9.30;99.90
40153;DHT22;26371;56.992;23.912;2024-01-06T09:02:02;-9.40;99.90
40153;DHT22;26371;56.992;23.912;2024-01-06T09:04:31;-9.40;99.90
40153;DHT22;26371;56.992;23.912;2024-01-06T09:07:00;-9.30;99.90
40153;DHT22;26371;56.992;23.912;2024-01-06T09:09:29;-9.30;99.90
40153;DHT22;26371;56.992;23.912;2024-01-06T09:11:58;-9.20;99.90
40153;DHT22;26371;56.992;23.912;2024-01-06T09:14:28;-9.20;99.90
40153;DHT22;26371;56.992;23.912;2024-01-06T09:16:59;-9.10;99.90
40153;DHT22;26371;56.992;23.912;2024-01-06T09:19:28;-9.10;99.90
40153;DHT22;26371;56.992;23.912;2024-01-06T09:21:58;-9.10;99.90
40153;DHT22;26371;56.992;23.912;2024-01-06T09:24:26;-9.10;99.90
40153;DHT22;26371;56.992;23.912;2024-01-06T09:26:55;-9.00;99.90
40153;DHT22;26371;56.992;23.912;2024-01-06T09:29:24;-9.00;99.90
40153;DHT22;26371;56.992;23.912;2024-01-06T09:31:54;-8.90;99.90
40153;DHT22;26371;56.992;23.912;2024-01-06T09:34:31;-8.90;99.90
40153;DHT22;26371;56.992;23.912;2024-01-06T09:37:05;-9.00;99.90
40153;DHT22;26371;56.992;23.912;2024-01-06T09:39:39;-9.00;99.90
40153;DHT22;26371;56.992;23.912;2024-01-06T09:42:09;-9.10;99.90
40153;DHT22;26371;56.992;23.912;2024-01-06T09:44:40;-9.00;99.90
40153;DHT22;26371;56.992;23.912;2024-01-06T09:47:16;-9.10;99.90
40153;DHT22;26371;56.992;23.912;2024-01-06T09:49:50;-9.10;99.90
40153;DHT22;26371;56.992;23.912;2024-01-06T09:52:22;-9.10;99.90
40153;DHT22;26371;56.992;23.912;2024-01-06T09:54:52;-9.10;99.90
40153;DHT22;26371;56.992;23.912;2024-01-06T09:57:29;-9.00;99.90
40153;DHT22;26371;56.992;23.912;2024-01-06T10:00:01;-9.10;99.90
40153;DHT22;26371;56.992;23.912;2024-01-06T10:02:45;-9.30;99.90
40153;DHT22;26371;56.992;23.912;2024-01-06T10:05:18;-9.30;99.90
40153;DHT22;26371;56.992;23.912;2024-01-06T10:07:52;-9.40;99.90
40153;DHT22;26371;56.992;23.912;2024-01-06T10:10:23;-9.40;99.90
40153;DHT22;26371;56.992;23.912;2024-01-06T10:12:53;-9.50;99.90
40153;DHT22;26371;56.992;23.912;2024-01-06T10:15:36;-9.50;99.90
40153;DHT22;26371;56.992;23.912;2024-01-06T10:18:08;-9.50;99.90
40153;DHT22;26371;56.992;23.912;2024-01-06T10:20:52;-9.50;99.90
40153;DHT22;26371;56.992;23.912;2024-01-06T10:23:22;-9.60;99.90
40153;DHT22;26371;56.992;23.912;2024-01-06T10:25:55;-9.60;99.90
40153;DHT22;26371;56.992;23.912;2024-01-06T10:28:29;-9.70;99.90
40153;DHT22;26371;56.992;23.912;2024-01-06T10:31:19;-9.80;99.90
40153;DHT22;26371;56.992;23.912;2024-01-06T10:33:52;-9.80;99.90
40153;DHT22;26371;56.992;23.912;2024-01-06T10:36:27;-9.80;99.90
40153;DHT22;26371;56.992;23.912;2024-01-06T10:39:04;-9.80;99.90
40153;DHT22;26371;56.992;23.912;2024-01-06T10:41:38;-9.80;99.90
40153;DHT22;26371;56.992;23.912;2024-01-06T10:44:11;-9.90;99.90
40153;DHT22;26371;56.992;23.912;2024-01-06T10:46:44;-9.90;99.90
40153;DHT22;26371;56.992;23.912;2024-01-06T10:49:20;-10.10;99.90
40153;DHT22;26371;56.992;23.912;2024-01-06T10:51:57;-10.10;99.90
40153;DHT22;26371;56.992;23.912;2024-01-06T10:54:35;-10.20;99.90
40153;DHT22;26371;56.992;23.912;2024-01-06T10:57:06;-10.10;99.90
40153;DHT22;26371;56.992;23.912;2024-01-06T10:59:37;-9.90;99.90
40153;DHT22;26371;56.992;23.912;2024-01-06T11:02:11;-9.70;99.90
40153;DHT22;26371;56.992;23.912;2024-01-06T11:04:46;-9.60;99.90
40153;DHT22;26371;56.992;23.912;2024-01-06T11:07:23;-9.50;99.90
40153;DHT22;26371;56.992;23.912;2024-01-06T11:09:59;-9.40;99.90
40153;DHT22;26371;56.992;23.912;2024-01-06T11:12:33;-9.30;99.90
40153;DHT22;26371;56.992;23.912;2024-01-06T11:15:10;-9.20;99.90
40153;DHT22;26371;56.992;23.912;2024-01-06T11:18:00;-9.20;99.90
40153;DHT22;26371;56.992;23.912;2024-01-06T11:20:35;-9.10;99.90
40153;DHT22;26371;56.992;23.912;2024-01-06T11:23:20;-9.00;99.90
40153;DHT22;26371;56.992;23.912;2024-01-06T11:25:50;-9.00;99.90
40153;DHT22;26371;56.992;23.912;2024-01-06T11:28:19;-9.00;99.90
40153;DHT22;26371;56.992;23.912;2024-01-06T11:31:05;-9.00;99.90
40153;DHT22;26371;56.992;23.912;2024-01-06T11:33:41;-9.10;99.90
40153;DHT22;26371;56.992;23.912;2024-01-06T11:36:11;-9.10;99.90
40153;DHT22;26371;56.992;23.912;2024-01-06T11:38:47;-9.00;99.90
40153;DHT22;26371;56.992;23.912;2024-01-06T11:41:47;-9.10;99.90
40153;DHT22;26371;56.992;23.912;2024-01-06T11:44:19;-9.10;99.90
40153;DHT22;26371;56.992;23.912;2024-01-06T11:46:49;-9.10;99.90
40153;DHT22;26371;56.992;23.912;2024-01-06T11:49:21;-9.10;99.90
40153;DHT22;26371;56.992;23.912;2024-01-06T11:51:52;-9.10;99.90
40153;DHT22;26371;56.992;23.912;2024-01-06T11:54:26;-9.10;99.90
40153;DHT22;26371;56.992;23.912;2024-01-06T11:56:59;-9.10;99.90
40153;DHT22;26371;56.992;23.912;2024-01-06T11:59:32;-9.20;99.90
40153;DHT22;26371;56.992;23.912;2024-01-06T12:02:09;-9.30;99.90
40153;DHT22;26371;56.992;23.912;2024-01-06T12:04:40;-9.30;99.90
40153;DHT22;26371;56.992;23.912;2024-01-06T12:07:12;-9.20;99.90
40153;DHT22;26371;56.992;23.912;2024-01-06T12:09:45;-9.10;99.90
40153;DHT22;26371;56.992;23.912;2024-01-06T12:12:22;-9.10;99.90
40153;DHT22;26371;56.992;23.912;2024-01-06T12:14:51;-9.10;99.90
40153;DHT22;26371;56.992;23.912;2024-01-06T12:17:21;-9.10;99.90
40153;DHT22;26371;56.992;23.912;2024-01-06T12:19:51;-9.10;99.90
40153;DHT22;26371;56.992;23.912;2024-01-06T12:22:21;-9.10;99.90
40153;DHT22;26371;56.992;23.912;2024-01-06T12:24:52;-9.10;99.90
40153;DHT22;26371;56.992;23.912;2024-01-06T12:27:27;-9.20;99.90
40153;DHT22;26371;56.992;23.912;2024-01-06T12:30:00;-9.20;99.90
40153;DHT22;26371;56.992;23.912;2024-01-06T12:32:29;-9.20;99.90
40153;DHT22;26371;56.992;23.912;2024-01-06T12:34:59;-9.20;99.90
40153;DHT22;26371;56.992;23.912;2024-01-06T12:37:28;-9.30;99.90
40153;DHT22;26371;56.992;23.912;2024-01-06T12:39:59;-9.50;99.90
40153;DHT22;26371;56.992;23.912;2024-01-06T12:42:29;-9.80;99.90
40153;DHT22;26371;56.992;23.912;2024-01-06T12:45:01;-10.00;99.90
40153;DHT22;26371;56.992;23.912;2024-01-06T12:47:33;-10.10;99.90
40153;DHT22;26371;56.992;23.912;2024-01-06T12:50:03;-10.20;99.90
40153;DHT22;26371;56.992;23.912;2024-01-06T12:52:32;-10.20;99.90
40153;DHT22;26371;56.992;23.912;2024-01-06T12:55:05;-10.20;99.90
40153;DHT22;26371;56.992;23.912;2024-01-06T12:57:37;-10.10;99.90
40153;DHT22;26371;56.992;23.912;2024-01-06T13:00:07;-9.90;99.90
40153;DHT22;26371;56.992;23.912;2024-01-06T13:02:40;-9.80;99.90
40153;DHT22;26371;56.992;23.912;2024-01-06T13:05:16;-9.80;99.90
40153;DHT22;26371;56.992;23.912;2024-01-06T13:07:52;-10.00;99.90
40153;DHT22;26371;56.992;23.912;2024-01-06T13:10:24;-10.10;99.90
40153;DHT22;26371;56.992;23.912;2024-01-06T13:12:56;-10.20;99.90
40153;DHT22;26371;56.992;23.912;2024-01-06T13:15:28;-10.30;99.90
40153;DHT22;26371;56.992;23.912;2024-01-06T13:18:04;-10.40;99.90
40153;DHT22;26371;56.992;23.912;2024-01-06T13:20:34;-10.50;99.90
40153;DHT22;26371;56.992;23.912;2024-01-06T13:23:07;-10.50;99.90
40153;DHT22;26371;56.992;23.912;2024-01-06T13:25:39;-10.70;99.90
40153;DHT22;26371;56.992;23.912;2024-01-06T13:28:08;-10.80;99.90
40153;DHT22;26371;56.992;23.912;2024-01-06T13:30:40;-11.00;99.90
40153;DHT22;26371;56.992;23.912;2024-01-06T13:33:12;-11.10;99.90
40153;DHT22;26371;56.992;23.912;2024-01-06T13:35:41;-11.10;99.90
40153;DHT22;26371;56.992;23.912;2024-01-06T13:38:15;-11.10;99.90
40153;DHT22;26371;56.992;23.912;2024-01-06T13:40:47;-11.20;99.90
40153;DHT22;26371;56.992;23.912;2024-01-06T13:43:19;-11.30;99.90
40153;DHT22;26371;56.992;23.912;2024-01-06T13:45:48;-11.30;99.90
40153;DHT22;26371;56.992;23.912;2024-01-06T13:48:24;-11.40;99.90
40153;DHT22;26371;56.992;23.912;2024-01-06T13:50:57;-11.50;99.90
40153;DHT22;26371;56.992;23.912;2024-01-06T13:53:26;-11.60;99.90
40153;DHT22;26371;56.992;23.912;2024-01-06T13:55:58;-11.70;99.90
40153;DHT22;26371;56.992;23.912;2024-01-06T13:58:32;-11.80;99.90
40153;DHT22;26371;56.992;23.912;2024-01-06T14:01:03;-11.90;99.90
40153;DHT22;26371;56.992;23.912;2024-01-06T14:03:37;-11.90;99.90
40153;DHT22;26371;56.992;23.912;2024-01-06T14:06:14;-11.90;99.90
40153;DHT22;26371;56.992;23.912;2024-01-06T14:08:46;-12.00;99.90
40153;DHT22;26371;56.992;23.912;2024-01-06T14:11:18;-12.10;99.90
40153;DHT22;26371;56.992;23.912;2024-01-06T14:13:48;-12.20;99.90
40153;DHT22;26371;56.992;23.912;2024-01-06T14:44:05;-13.00;99.90
40153;DHT22;26371;56.992;23.912;2024-01-06T14:46:38;-13.10;99.90
40153;DHT22;26371;56.992;23.912;2024-01-06T14:49:09;-13.20;99.90
40153;DHT22;26371;56.992;23.912;2024-01-06T14:51:39;-13.30;99.90
40153;DHT22;26371;56.992;23.912;2024-01-06T14:54:09;-13.30;99.90
40153;DHT22;26371;56.992;23.912;2024-01-06T14:56:41;-13.40;99.90
40153;DHT22;26371;56.992;23.912;2024-01-06T14:59:13;-13.40;99.90
40153;DHT22;26371;56.992;23.912;2024-01-06T15:01:46;-13.50;99.90
40153;DHT22;26371;56.992;23.912;2024-01-06T15:04:16;-13.60;99.90
40153;DHT22;26371;56.992;23.912;2024-01-06T15:06:46;-13.60;99.90
40153;DHT22;26371;56.992;23.912;2024-01-06T15:09:17;-13.70;99.90
40153;DHT22;26371;56.992;23.912;2024-01-06T15:11:52;-13.70;99.90
40153;DHT22;26371;56.992;23.912;2024-01-06T15:14:24;-13.70;99.90
40153;DHT22;26371;56.992;23.912;2024-01-06T15:16:54;-13.70;99.90
40153;DHT22;26371;56.992;23.912;2024-01-06T15:19:24;-13.80;99.90
40153;DHT22;26371;56.992;23.912;2024-01-06T15:21:56;-13.80;99.90
40153;DHT22;26371;56.992;23.912;2024-01-06T15:24:26;-13.80;99.90
40153;DHT22;26371;56.992;23.912;2024-01-06T15:27:00;-13.90;99.90
40153;DHT22;26371;56.992;23.912;2024-01-06T15:29:29;-13.90;99.90
40153;DHT22;26371;56.992;23.912;2024-01-06T15:31:59;-13.90;99.90
40153;DHT22;26371;56.992;23.912;2024-01-06T15:34:28;-13.90;99.90
40153;DHT22;26371;56.992;23.912;2024-01-06T15:37:01;-13.90;99.90
40153;DHT22;26371;56.992;23.912;2024-01-06T15:39:35;-13.90;99.90
40153;DHT22;26371;56.992;23.912;2024-01-06T15:42:06;-13.90;99.90
40153;DHT22;26371;56.992;23.912;2024-01-06T15:44:36;-13.90;99.90
40153;DHT22;26371;56.992;23.912;2024-01-06T15:47:08;-13.90;99.90
40153;DHT22;26371;56.992;23.912;2024-01-06T15:49:38;-13.90;99.90
40153;DHT22;26371;56.992;23.912;2024-01-06T15:52:08;-13.80;99.90
40153;DHT22;26371;56.992;23.912;2024-01-06T15:54:42;-13.80;99.90
40153;DHT22;26371;56.992;23.912;2024-01-06T15:57:13;-13.70;99.90
40153;DHT22;26371;56.992;23.912;2024-01-06T15:59:48;-13.70;99.90
40153;DHT22;26371;56.992;23.912;2024-01-06T16:02:19;-13.80;99.90